Etusivu
METAR-TAF:

METAR-TAF

Lentoasemat :

Jendouba, Tunisia

Leveyspiiri: 36-29N, Pituuspiiri: 008-48E, korkeus merenpinnasta: 143 m

Tämänhetkinen sää

Tämä raportti tehtiin 35 minuuttia sitten, kello 07.00 UTC
tyyntä
Lämpötila 18°C
Kosteus 59%
Ilmanpaine 1015 hPa
Näkyvyys 10 km tai enemmän
Muutamia pilviä 2000 ft:n korkeudessa

METAR: DTTN 240700Z 00000KT 9999 FEW020 18/10 Q1015

Aika: 08:35 (07:35 UTC)


TAF: puuttuu

Säähavainnot ja -ennusteet yli 4000 lentoasemalta (METAR- ja TAF-raportit).

Käytössä olevat sääasemat on merkitty karttaan keltaisilla ja punaisilla pisteillä.

Aseta hiiri pisteen päälle nähdäksesi sääaseman nimen.

Klikkaa sitten nähdäksesi säähavainnot ja -ennusteet.

Kartan vaihtaminen: klikkaa mustalla rastilla varustettuja vihreitä pisteitä, niin voit zoomata sisään; viivalla varustettua vihreää pistettä, niin voit zoomata ulos tai vihreitä nuolia, niin pääset viereisille kartoille.


METAR-TAF: